DAAJ/DJG METAR and TAF weather

Enter ICAO airport designator
Station Type Date Time Source
DAAJ METAR 2020/11/27 14:00 UTC NOAA

DAAJ 271400Z 17007KT CAVOK 19/M04 Q1017


Station Type Date Time Source
DAAJ Decoded METAR 2020/11/27 14:00 UTC NOAA

Djanet, Algeria (DAAJ) 24-33N 009-28E 1054M
Nov 27, 2020 - 09:00 AM EST / 2020.11.27 1400 UTC
Wind: from the S (170 degrees) at 8 MPH (7 KT):0
Visibility: greater than 7 mile(s):0
Temperature: 66 F (19 C)
Dew Point: 24 F (-4 C)
Relative Humidity: 20%
Pressure (altimeter): 30.03 in. Hg (1017 hPa)
ob: DAAJ 271400Z 17007KT CAVOK 19/M04 Q1017
cycle: 14

Station Type Date Time Source
DAAJ TAF 2020/11/27 12:33 UTC NOAA

TAF DAAJ 271100Z 2712/2812 18008KT CAVOK
BECMG 2717/2720 VRB02KT
BECMG 2809/2811 20018KT PROB40
TEMPO 2809/2812 20018G28KT 3000 DRSA

Example: see airport list